Time;durP1;ratioP1;P1;durP2;ratioP2;P2;SDS_P1;SDS_P2;PMS_P1;PMS_P2;Temp;Humidity;BMP_temperature;BMP_pressure;BME280_temperature;BME280_humidity;BME280_pressure;Samples;Min_cycle;Max_cycle;Signal;HPM_P1;HPM_P2
2022/10/16 00:01:14;;;;;;;5.30;1.00;;;;;;;17.22;88.77;100162.22;5015052;28;20415;-76
2022/10/16 00:03:41;;;;;;;3.40;1.20;;;;;;;17.23;88.66;100176.72;5014640;28;20787;-76
2022/10/16 00:06:07;;;;;;;4.88;1.10;;;;;;;17.26;88.67;100185.16;5015163;28;20886;-77
2022/10/16 00:08:33;;;;;;;4.90;1.00;;;;;;;17.23;88.67;100169.31;4997474;28;20503;-76
2022/10/16 00:11:00;;;;;;;5.60;1.00;;;;;;;17.22;88.83;100166.88;5023138;28;20423;-77
2022/10/16 00:13:26;;;;;;;4.25;1.17;;;;;;;17.23;88.87;100163.03;5007788;28;20409;-76
2022/10/16 00:15:55;;;;;;;2.00;0.87;;;;;;;17.24;88.81;100170.13;5012646;28;20397;-76
2022/10/16 00:18:21;;;;;;;1.55;0.70;;;;;;;17.22;88.76;100159.50;4999074;28;20399;-77
2022/10/16 00:20:46;;;;;;;4.30;1.00;;;;;;;17.24;88.81;100167.41;5022786;28;20890;-76
2022/10/16 00:23:11;;;;;;;0.80;0.80;;;;;;;17.26;88.89;100160.50;5010422;28;20415;-76
2022/10/16 00:25:36;;;;;;;3.10;0.90;;;;;;;17.24;88.88;100161.91;5011735;28;20400;-76
2022/10/16 00:28:02;;;;;;;4.73;1.07;;;;;;;17.24;88.86;100153.69;5004306;28;20489;-76
2022/10/16 00:30:27;;;;;;;5.70;1.20;;;;;;;17.22;88.66;100162.22;5016430;28;20410;-76
2022/10/16 00:32:53;;;;;;;3.10;0.82;;;;;;;17.15;89.30;100160.97;5017435;28;20411;-77
2022/10/16 00:35:18;;;;;;;3.40;0.70;;;;;;;17.19;89.31;100170.22;5018468;28;20511;-76
2022/10/16 00:37:43;;;;;;;3.03;1.20;;;;;;;17.13;89.53;100166.72;5018006;28;20488;-76
2022/10/16 00:40:09;;;;;;;3.63;0.97;;;;;;;17.17;89.34;100158.72;5020919;28;20772;-77
2022/10/16 00:42:34;;;;;;;2.55;0.82;;;;;;;17.22;89.07;100158.66;5012498;28;20904;-77
2022/10/16 00:45:00;;;;;;;3.60;0.70;;;;;;;17.23;88.98;100155.63;5008817;28;20384;-77
2022/10/16 00:47:42;;;;;;;0.50;0.50;;;;;;;17.23;89.14;100158.34;4999331;28;20485;-76
2022/10/16 00:50:18;;;;;;;4.50;0.90;;;;;;;17.21;89.18;100160.59;5007246;28;20464;-76
2022/10/16 00:52:46;;;;;;;4.88;0.95;;;;;;;17.22;89.14;100167.72;5010229;28;20470;-76
2022/10/16 00:55:12;;;;;;;4.15;1.13;;;;;;;17.21;89.25;100168.00;5011579;28;20389;-76
2022/10/16 00:57:39;;;;;;;2.53;0.80;;;;;;;17.21;89.10;100179.75;5007920;28;20409;-76
2022/10/16 01:00:07;;;;;;;0.98;0.90;;;;;;;17.22;89.12;100177.84;5018153;28;20415;-77
2022/10/16 01:02:32;;;;;;;1.40;1.08;;;;;;;17.21;89.08;100173.47;5014658;28;20752;-76
2022/10/16 01:04:58;;;;;;;1.50;1.00;;;;;;;17.21;89.20;100181.69;4998637;28;20423;-77
2022/10/16 01:07:35;;;;;;;2.25;0.95;;;;;;;17.19;89.15;100184.69;5007870;28;20767;-77
2022/10/16 01:10:27;;;;;;;1.52;1.10;;;;;;;17.19;89.51;100178.44;5021119;28;20399;-76
2022/10/16 01:13:09;;;;;;;2.10;1.02;;;;;;;17.19;89.29;100183.91;5011332;28;20384;-76
2022/10/16 01:15:42;;;;;;;4.10;1.30;;;;;;;17.17;89.40;100180.63;5002932;28;20417;-77
2022/10/16 01:18:14;;;;;;;5.00;1.30;;;;;;;17.16;89.37;100185.28;5006424;28;20763;-76
2022/10/16 01:20:53;;;;;;;3.07;1.00;;;;;;;17.15;89.38;100182.88;5018030;28;20779;-77
2022/10/16 01:23:35;;;;;;;1.20;1.10;;;;;;;17.15;89.59;100189.16;5002936;28;20425;-76
2022/10/16 01:26:09;;;;;;;5.43;1.40;;;;;;;17.15;89.36;100182.88;5017834;28;20386;-77
2022/10/16 01:28:41;;;;;;;2.47;1.00;;;;;;;17.15;89.43;100180.13;5016438;28;20477;-77
2022/10/16 01:31:10;;;;;;;9.50;1.30;;;;;;;17.13;89.58;100178.50;5007383;28;20412;-76
2022/10/16 01:33:44;;;;;;;1.95;1.00;;;;;;;17.13;89.70;100178.50;5012782;28;20802;-76
2022/10/16 01:36:22;;;;;;;3.30;1.20;;;;;;;17.13;89.40;100173.00;5004925;28;20490;-77
2022/10/16 01:38:51;;;;;;;4.73;1.20;;;;;;;17.15;89.41;100166.44;4998432;28;20440;-76
2022/10/16 01:41:26;;;;;;;3.47;1.50;;;;;;;17.14;89.11;100168.34;5007138;28;20496;-76
2022/10/16 01:44:00;;;;;;;5.47;1.30;;;;;;;17.15;89.46;100164.53;5007757;28;20432;-76
2022/10/16 01:46:27;;;;;;;3.00;1.17;;;;;;;17.13;89.19;100159.31;5002615;28;20788;-76
2022/10/16 01:48:53;;;;;;;5.00;1.40;;;;;;;17.11;89.19;100164.28;5002337;28;20497;-77
2022/10/16 01:51:20;;;;;;;4.03;1.10;;;;;;;17.10;89.27;100162.66;5010141;28;20402;-77
2022/10/16 01:53:51;;;;;;;2.00;1.10;;;;;;;17.09;89.25;100166.50;5017619;28;20436;-77
2022/10/16 01:56:17;;;;;;;4.70;1.63;;;;;;;17.09;89.05;100162.97;5010909;28;20503;-77
2022/10/16 01:58:55;;;;;;;5.57;1.27;;;;;;;17.05;89.28;100165.47;5000104;28;20398;-77
2022/10/16 02:01:23;;;;;;;7.30;1.38;;;;;;;17.04;89.26;100158.34;5020546;28;20421;-77
2022/10/16 02:03:53;;;;;;;2.10;1.30;;;;;;;17.01;89.35;100171.81;5017150;28;21179;-77
2022/10/16 02:06:18;;;;;;;4.40;2.10;;;;;;;17.01;89.27;100180.03;5006672;28;20415;-76
2022/10/16 02:08:43;;;;;;;12.73;4.17;;;;;;;17.00;89.39;100183.88;5020600;28;20498;-77
2022/10/16 02:11:10;;;;;;;9.77;4.88;;;;;;;16.98;89.44;100175.16;5020740;28;20391;-77
2022/10/16 02:13:45;;;;;;;9.15;4.10;;;;;;;16.98;89.37;100191.56;5017614;28;20491;-77
2022/10/16 02:16:12;;;;;;;6.93;3.28;;;;;;;16.97;89.33;100188.00;5014053;28;20484;-76
2022/10/16 02:18:38;;;;;;;6.85;2.95;;;;;;;16.96;89.49;100193.78;5019236;28;20395;-76
2022/10/16 02:21:17;;;;;;;5.68;3.17;;;;;;;16.96;89.41;100197.31;5015173;28;20451;-77
2022/10/16 02:23:55;;;;;;;7.88;3.88;;;;;;;16.96;89.38;100191.03;5015467;28;20868;-76
2022/10/16 02:26:41;;;;;;;10.38;4.03;;;;;;;16.95;89.22;100189.44;5016716;28;20460;-77
2022/10/16 02:29:10;;;;;;;5.80;3.55;;;;;;;16.96;89.20;100200.06;5016251;28;20413;-77
2022/10/16 02:31:41;;;;;;;7.43;3.10;;;;;;;16.95;89.36;100190.25;5013143;28;20401;-77
2022/10/16 02:34:08;;;;;;;5.32;2.88;;;;;;;16.95;89.31;100200.38;5020864;28;20405;-76
2022/10/16 02:36:35;;;;;;;3.45;2.38;;;;;;;16.94;89.36;100187.78;5021871;28;20407;-76
2022/10/16 02:39:03;;;;;;;11.23;4.15;;;;;;;16.92;89.23;100196.31;5015681;28;20429;-76
2022/10/16 02:41:29;;;;;;;11.18;3.70;;;;;;;16.92;89.32;100188.09;5014626;28;20441;-77
2022/10/16 02:43:54;;;;;;;7.33;3.13;;;;;;;16.86;89.68;100180.25;5022032;28;20748;-76
2022/10/16 02:46:20;;;;;;;6.88;2.97;;;;;;;16.91;89.32;100194.66;5021968;28;20415;-76
2022/10/16 02:48:46;;;;;;;7.82;2.30;;;;;;;16.90;89.32;100194.94;5021406;28;20405;-77
2022/10/16 02:51:11;;;;;;;6.57;1.90;;;;;;;16.92;89.25;100193.56;5019382;28;20393;-77
2022/10/16 02:53:36;;;;;;;4.00;1.73;;;;;;;16.91;89.21;100191.09;5036507;28;20419;-76
2022/10/16 02:56:02;;;;;;;4.20;1.67;;;;;;;16.91;89.20;100202.88;5016905;28;20420;-77
2022/10/16 02:58:27;;;;;;;4.83;1.63;;;;;;;16.91;89.15;100208.34;5010759;28;20399;-77
2022/10/16 03:00:52;;;;;;;1.77;1.07;;;;;;;16.90;89.11;100212.19;5020781;28;20861;-77
2022/10/16 03:03:18;;;;;;;3.70;1.20;;;;;;;16.90;89.24;100214.94;5019357;28;20412;-76
2022/10/16 03:05:45;;;;;;;2.93;1.20;;;;;;;16.92;89.09;100211.91;5020675;28;20854;-76
2022/10/16 03:08:11;;;;;;;3.93;1.67;;;;;;;16.93;89.02;100210.78;5007019;28;20987;-76
2022/10/16 03:10:36;;;;;;;4.83;1.70;;;;;;;16.94;88.92;100215.97;5011438;28;20401;-76
2022/10/16 03:13:02;;;;;;;2.57;1.73;;;;;;;16.94;88.89;100210.50;5015741;28;20743;-77
2022/10/16 03:15:28;;;;;;;3.90;1.67;;;;;;;16.92;88.96;100209.16;5019250;28;20408;-76
2022/10/16 03:17:54;;;;;;;4.97;1.50;;;;;;;16.91;89.07;100202.88;5021321;28;20417;-76
2022/10/16 03:20:19;;;;;;;3.27;1.17;;;;;;;16.92;89.11;100206.44;5019969;28;20876;-76
2022/10/16 03:22:44;;;;;;;4.50;1.07;;;;;;;16.91;89.07;100202.88;5019964;28;20392;-76
2022/10/16 03:25:09;;;;;;;2.70;1.60;;;;;;;16.92;89.28;100196.31;5019214;28;20465;-77
2022/10/16 03:27:35;;;;;;;3.90;1.20;;;;;;;16.92;88.99;100204.53;5006883;28;20822;-76
2022/10/16 03:30:00;;;;;;;4.87;1.10;;;;;;;16.92;89.04;100204.53;5030450;28;20402;-76
2022/10/16 03:32:25;;;;;;;8.07;1.33;;;;;;;16.93;89.06;100197.91;5007371;28;20401;-76
2022/10/16 03:34:52;;;;;;;3.67;1.10;;;;;;;16.94;89.03;100204.22;5019391;28;20397;-77
2022/10/16 03:37:18;;;;;;;3.30;1.23;;;;;;;16.93;89.08;100208.03;5008681;28;20409;-76
2022/10/16 03:39:43;;;;;;;2.40;1.50;;;;;;;16.92;89.18;100211.91;5019732;28;20400;-76
2022/10/16 03:42:08;;;;;;;1.50;0.90;;;;;;;16.92;89.14;100212.72;5035504;28;20420;-76
2022/10/16 03:44:33;;;;;;;5.35;1.00;;;;;;;16.90;89.15;100222.31;5018528;28;20419;-76
2022/10/16 03:46:59;;;;;;;6.70;1.10;;;;;;;16.92;89.14;100215.47;5013063;28;20911;-76
2022/10/16 03:49:24;;;;;;;5.10;1.10;;;;;;;16.90;88.97;100214.94;5023323;28;20395;-76
2022/10/16 03:51:49;;;;;;;6.70;1.57;;;;;;;16.90;89.08;100209.44;5019557;28;20891;-76
2022/10/16 03:54:14;;;;;;;6.88;0.90;;;;;;;16.90;89.08;100205.91;5019602;28;20544;-76
2022/10/16 03:56:40;;;;;;;7.83;1.07;;;;;;;16.88;89.14;100210.84;5018450;28;20884;-76
2022/10/16 03:59:05;;;;;;;2.23;1.17;;;;;;;16.85;89.19;100209.53;5023274;28;20398;-77
2022/10/16 04:01:30;;;;;;;2.70;1.23;;;;;;;16.83;89.14;100213.63;5019948;28;20498;-76
2022/10/16 04:03:55;;;;;;;7.13;0.98;;;;;;;16.83;89.06;100210.91;5018972;28;20744;-77
2022/10/16 04:06:21;;;;;;;5.40;1.10;;;;;;;16.81;89.11;100211.22;5017523;28;20413;-76
2022/10/16 04:08:46;;;;;;;4.30;1.23;;;;;;;16.84;89.00;100213.34;5022919;28;20419;-77
2022/10/16 04:11:11;;;;;;;7.57;1.80;;;;;;;16.85;88.98;100211.44;5021597;28;20384;-76
2022/10/16 04:13:37;;;;;;;4.40;1.40;;;;;;;16.83;88.90;100219.94;5019501;28;20872;-76
2022/10/16 04:16:02;;;;;;;7.43;1.43;;;;;;;16.82;88.96;100223.81;4997596;28;20798;-76
2022/10/16 04:18:28;;;;;;;4.20;1.40;;;;;;;16.82;89.08;100228.44;5018838;28;20398;-76
2022/10/16 04:20:54;;;;;;;4.68;1.27;;;;;;;16.81;89.00;100226.81;5013345;28;20428;-76
2022/10/16 04:23:20;;;;;;;3.63;0.80;;;;;;;16.81;89.19;100226.81;5018780;28;20392;-76
2022/10/16 04:25:45;;;;;;;3.35;1.02;;;;;;;16.82;89.18;100231.19;5016582;28;20848;-77
2022/10/16 04:28:10;;;;;;;2.37;0.83;;;;;;;16.81;89.09;100244.06;5020694;28;20393;-77
2022/10/16 04:30:38;;;;;;;6.20;1.20;;;;;;;16.81;89.18;100248.72;5016132;28;20411;-77
2022/10/16 04:33:04;;;;;;;4.75;1.20;;;;;;;16.79;89.12;100249.00;5019147;28;20392;-77
2022/10/16 04:35:29;;;;;;;3.57;1.00;;;;;;;16.79;89.22;100248.19;5014540;28;20834;-76
2022/10/16 04:38:00;;;;;;;1.40;0.93;;;;;;;16.78;89.15;100252.84;5013867;28;20403;-77
2022/10/16 04:40:25;;;;;;;2.60;1.13;;;;;;;16.79;89.22;100254.50;5021243;28;20472;-77
2022/10/16 04:42:51;;;;;;;6.15;1.80;;;;;;;16.81;89.19;100251.44;5019559;28;20780;-77
2022/10/16 04:45:19;;;;;;;4.80;1.50;;;;;;;16.81;89.02;100252.25;5011621;28;20401;-76
2022/10/16 04:47:47;;;;;;;7.88;1.30;;;;;;;16.79;89.23;100239.97;5016501;28;20404;-77
2022/10/16 04:50:12;;;;;;;4.35;1.35;;;;;;;16.80;89.24;100250.63;5022374;28;20392;-76
2022/10/16 04:52:37;;;;;;;3.20;1.40;;;;;;;16.80;89.30;100256.09;5019863;28;20464;-76
2022/10/16 04:55:03;;;;;;;4.75;1.20;;;;;;;16.78;89.36;100255.59;5017817;28;20428;-77
2022/10/16 04:57:29;;;;;;;2.43;1.60;;;;;;;16.78;89.36;100263.78;5010519;28;20406;-77
2022/10/16 04:59:54;;;;;;;6.75;1.10;;;;;;;16.78;89.35;100266.53;5022404;28;20395;-77
2022/10/16 05:02:20;;;;;;;2.13;1.23;;;;;;;16.80;89.38;100264.31;5020756;28;20399;-76
2022/10/16 05:04:45;;;;;;;5.03;1.30;;;;;;;16.80;89.28;100266.22;5010483;28;20427;-77
2022/10/16 05:07:11;;;;;;;4.60;0.88;;;;;;;16.80;89.31;100258.00;5008932;28;20749;-77
2022/10/16 05:09:36;;;;;;;5.70;1.00;;;;;;;16.81;89.23;100259.66;5008604;28;20483;-76
2022/10/16 05:12:02;;;;;;;4.77;1.53;;;;;;;16.80;89.14;100264.31;5015894;28;20403;-76
2022/10/16 05:14:27;;;;;;;2.70;0.75;;;;;;;16.81;89.10;100259.66;5008509;28;20412;-76
2022/10/16 05:16:53;;;;;;;2.73;0.77;;;;;;;16.80;89.10;100266.22;5017551;28;20712;-76
2022/10/16 05:19:20;;;;;;;2.20;0.70;;;;;;;16.79;88.98;100259.13;5014342;28;20402;-76
2022/10/16 05:21:46;;;;;;;4.22;0.73;;;;;;;16.77;89.05;100267.63;5021755;28;20410;-76
2022/10/16 05:24:11;;;;;;;1.70;0.70;;;;;;;16.79;88.62;100267.34;5018325;28;20395;-76
2022/10/16 05:26:36;;;;;;;3.00;0.90;;;;;;;16.78;88.46;100269.25;5015802;28;20856;-76
2022/10/16 05:29:02;;;;;;;2.30;0.87;;;;;;;16.75;88.77;100267.13;5017956;28;20864;-76
2022/10/16 05:31:28;;;;;;;3.80;0.85;;;;;;;16.74;88.99;100272.88;5021734;28;20485;-76
2022/10/16 05:33:58;;;;;;;4.53;0.70;;;;;;;16.72;89.10;100273.16;5019396;28;20640;-76
2022/10/16 05:36:23;;;;;;;5.68;0.80;;;;;;;16.71;89.18;100281.66;5015199;28;20776;-76
2022/10/16 05:38:50;;;;;;;2.78;0.80;;;;;;;16.70;89.17;100275.34;5018246;28;20396;-77
2022/10/16 05:41:21;;;;;;;4.53;1.00;;;;;;;16.70;89.09;100280.00;5021816;28;20513;-76
2022/10/16 05:43:46;;;;;;;7.75;1.45;;;;;;;16.70;89.12;100289.03;5019251;28;20885;-77
2022/10/16 05:46:11;;;;;;;3.93;0.97;;;;;;;16.68;89.22;100291.25;5005623;28;20421;-76
2022/10/16 05:48:36;;;;;;;6.20;1.30;;;;;;;16.68;89.06;100274.03;5016922;28;20499;-76
2022/10/16 05:51:04;;;;;;;4.30;1.13;;;;;;;16.69;89.26;100275.66;5015641;28;20407;-77
2022/10/16 05:53:32;;;;;;;5.80;0.80;;;;;;;16.64;89.48;100276.53;4991947;28;20418;-76
2022/10/16 05:55:58;;;;;;;7.35;1.35;;;;;;;16.64;89.46;100273.78;5007821;28;20507;-76
2022/10/16 05:58:25;;;;;;;2.00;0.60;;;;;;;16.63;89.42;100279.56;5021866;28;20842;-76
2022/10/16 06:00:56;;;;;;;3.03;0.80;;;;;;;16.62;89.42;100283.41;5025239;28;20442;-76
2022/10/16 06:03:21;;;;;;;7.07;1.23;;;;;;;16.66;89.21;100284.44;5013088;28;20440;-76
2022/10/16 06:05:47;;;;;;;4.53;1.00;;;;;;;16.66;89.23;100290.75;5005264;28;20455;-76
2022/10/16 06:08:12;;;;;;;5.03;0.80;;;;;;;16.65;89.21;100305.53;5013372;28;20409;-76
2022/10/16 06:10:37;;;;;;;8.23;1.03;;;;;;;16.66;89.08;100307.16;5005142;28;20436;-75
2022/10/16 06:13:02;;;;;;;3.53;1.30;;;;;;;16.68;89.20;100301.38;4994275;28;20416;-76
2022/10/16 06:15:28;;;;;;;3.60;1.20;;;;;;;16.70;89.00;100291.78;4995435;28;20532;-76
2022/10/16 06:17:53;;;;;;;2.40;0.90;;;;;;;16.70;88.99;100286.31;4996364;28;20419;-75
2022/10/16 06:20:18;;;;;;;7.63;1.60;;;;;;;16.69;88.99;100283.88;4997045;28;20422;-75
2022/10/16 06:22:43;;;;;;;3.27;0.70;;;;;;;16.69;89.01;100289.34;4995918;28;20966;-75
2022/10/16 06:25:09;;;;;;;4.40;1.10;;;;;;;16.71;88.91;100292.59;4997705;28;20455;-75
2022/10/16 06:27:34;;;;;;;5.27;1.20;;;;;;;16.70;89.09;100296.44;4995404;28;20886;-75
2022/10/16 06:29:59;;;;;;;4.87;1.00;;;;;;;16.75;88.97;100301.88;5001350;28;20444;-75
2022/10/16 06:32:25;;;;;;;2.70;1.33;;;;;;;16.78;88.84;100302.09;4995114;28;20417;-75
2022/10/16 06:34:50;;;;;;;5.00;1.20;;;;;;;16.78;88.75;100313.06;4993312;28;20935;-76
2022/10/16 06:37:15;;;;;;;0.87;0.87;;;;;;;16.81;88.89;100309.72;4997214;28;20402;-76
2022/10/16 06:39:40;;;;;;;7.13;1.20;;;;;;;16.82;88.81;100314.13;4999285;28;20513;-76
2022/10/16 06:42:05;;;;;;;9.20;0.90;;;;;;;16.84;88.75;100322.84;4995980;28;20452;-76
2022/10/16 06:44:31;;;;;;;4.53;1.00;;;;;;;16.86;88.67;100319.81;4995644;28;20417;-76
2022/10/16 06:46:56;;;;;;;3.03;1.17;;;;;;;16.88;88.80;100303.91;5001789;28;20413;-76
2022/10/16 06:49:22;;;;;;;4.47;1.10;;;;;;;16.90;88.59;100308.00;4997723;28;20485;-76
2022/10/16 06:51:48;;;;;;;3.63;1.10;;;;;;;16.93;88.55;100309.31;5005815;28;20426;-76
2022/10/16 06:54:15;;;;;;;3.58;1.40;;;;;;;16.97;88.39;100308.47;4997817;28;20412;-76
2022/10/16 06:56:40;;;;;;;1.10;1.00;;;;;;;17.00;88.46;100312.53;4996642;28;20426;-76
2022/10/16 06:59:05;;;;;;;3.90;1.10;;;;;;;17.00;88.34;100321.56;5000110;28;21070;-76
2022/10/16 07:01:31;;;;;;;4.70;1.27;;;;;;;17.04;88.42;100313.59;4996167;28;20433;-75
2022/10/16 07:03:57;;;;;;;3.60;1.00;;;;;;;17.04;88.40;100319.88;5007070;28;20415;-75
2022/10/16 07:06:24;;;;;;;3.30;1.20;;;;;;;17.08;88.52;100320.94;4995442;28;20507;-75
2022/10/16 07:08:50;;;;;;;2.70;1.30;;;;;;;17.08;88.68;100329.16;4992642;28;20409;-75
2022/10/16 07:11:18;;;;;;;3.97;1.03;;;;;;;17.09;88.61;100335.47;4995904;28;20420;-74
2022/10/16 07:13:44;;;;;;;5.38;1.20;;;;;;;17.12;88.59;100334.88;5008001;28;20396;-74
2022/10/16 07:16:16;;;;;;;5.35;1.48;;;;;;;17.09;88.55;100349.16;5010327;28;20450;-74
2022/10/16 07:18:44;;;;;;;4.30;1.63;;;;;;;17.09;88.80;100349.16;5017045;28;20406;-75
2022/10/16 07:21:10;;;;;;;5.88;1.38;;;;;;;17.12;89.07;100346.63;4999170;28;20431;-75
2022/10/16 07:23:36;;;;;;;3.67;1.20;;;;;;;17.20;88.80;100353.38;5007635;28;20939;-74
2022/10/16 07:26:03;;;;;;;2.58;1.15;;;;;;;17.25;88.52;100358.81;5013764;28;20397;-74
2022/10/16 07:28:28;;;;;;;3.87;1.20;;;;;;;17.27;88.66;100366.72;5018098;28;20461;-75
2022/10/16 07:30:54;;;;;;;3.80;1.00;;;;;;;17.28;88.57;100371.13;5021971;28;20407;-74
2022/10/16 07:33:19;;;;;;;5.07;1.10;;;;;;;17.28;88.61;100366.44;5018675;28;20412;-74
2022/10/16 07:35:52;;;;;;;2.80;1.20;;;;;;;17.32;88.56;100361.22;5010823;28;20393;-74
2022/10/16 07:38:18;;;;;;;4.60;1.30;;;;;;;17.35;88.55;100371.59;5017052;28;20806;-74
2022/10/16 07:40:43;;;;;;;3.10;1.30;;;;;;;17.42;88.36;100375.59;5011594;28;20412;-74
2022/10/16 07:43:09;;;;;;;5.10;1.50;;;;;;;17.50;88.03;100383.16;5015621;28;20743;-74
2022/10/16 07:45:34;;;;;;;4.70;0.95;;;;;;;17.57;87.99;100394.63;5019684;28;20401;-73
2022/10/16 07:47:59;;;;;;;3.10;1.17;;;;;;;17.58;87.67;100390.75;5023221;28;20473;-74
2022/10/16 07:50:25;;;;;;;9.07;1.23;;;;;;;17.57;87.78;100396.53;5017407;28;20416;-74
2022/10/16 07:52:53;;;;;;;2.97;1.17;;;;;;;17.59;87.82;100400.63;5015023;28;20462;-73
2022/10/16 07:55:18;;;;;;;3.13;1.10;;;;;;;17.67;87.38;100410.13;5006779;28;20404;-73
2022/10/16 07:57:43;;;;;;;2.38;1.20;;;;;;;17.69;87.41;100407.91;5021817;28;20491;-73
2022/10/16 08:00:13;;;;;;;6.40;3.10;;;;;;;17.73;87.32;100410.88;5025594;28;20728;-73
2022/10/16 08:02:39;;;;;;;5.20;4.70;;;;;;;17.77;87.28;100400.97;5013111;28;20487;-75
2022/10/16 08:05:06;;;;;;;5.22;2.92;;;;;;;17.82;87.19;100404.44;5020965;28;20699;-73
2022/10/16 08:07:31;;;;;;;3.55;1.65;;;;;;;17.84;86.89;100413.22;5024663;28;20929;-73
2022/10/16 08:09:58;;;;;;;1.40;0.90;;;;;;;17.90;86.77;100405.72;5022821;28;20407;-74
2022/10/16 08:12:23;;;;;;;3.17;1.10;;;;;;;17.95;86.15;100391.94;5018671;28;20409;-74
2022/10/16 08:14:48;;;;;;;3.37;1.10;;;;;;;17.98;86.19;100394.13;5013368;28;20484;-74
2022/10/16 08:17:15;;;;;;;4.28;1.20;;;;;;;17.98;85.91;100380.41;5014187;28;20406;-74
2022/10/16 08:19:44;;;;;;;3.30;1.10;;;;;;;18.02;85.78;100386.91;5009751;28;20432;-73
2022/10/16 08:22:09;;;;;;;3.58;1.42;;;;;;;18.06;85.41;100385.22;5010941;28;20555;-74
2022/10/16 08:24:36;;;;;;;2.35;1.10;;;;;;;18.05;85.36;100387.13;5014518;28;20864;-74
2022/10/16 08:27:02;;;;;;;6.72;1.13;;;;;;;18.10;85.28;100399.97;5016448;28;20437;-74
2022/10/16 08:29:27;;;;;;;3.57;0.90;;;;;;;18.19;85.36;100405.59;5012288;28;20440;-74
2022/10/16 08:31:52;;;;;;;2.03;1.30;;;;;;;18.27;85.37;100413.97;5011832;28;20420;-74
2022/10/16 08:34:18;;;;;;;4.30;1.38;;;;;;;18.34;85.36;100422.63;5013154;28;20408;-74
2022/10/16 08:36:43;;;;;;;1.60;1.50;;;;;;;18.44;84.84;100427.97;5013609;28;20451;-74
2022/10/16 08:39:08;;;;;;;11.50;3.93;;;;;;;18.51;84.48;100435.84;5019398;28;20766;-72
2022/10/16 08:41:51;;;;;;;20.58;9.32;;;;;;;18.56;84.66;100433.88;5015738;28;20436;-75
2022/10/16 08:44:33;;;;;;;3.63;2.05;;;;;;;18.61;84.75;100435.69;5016488;28;20409;-74
2022/10/16 08:47:17;;;;;;;2.92;1.50;;;;;;;18.67;84.25;100444.69;5010240;28;20483;-74
2022/10/16 08:49:53;;;;;;;2.20;1.20;;;;;;;18.77;83.94;100448.06;5014887;28;20433;-74
2022/10/16 08:52:18;;;;;;;3.08;1.02;;;;;;;18.83;83.63;100463.38;5014866;28;20424;-74
2022/10/16 08:54:50;;;;;;;3.00;1.20;;;;;;;18.84;83.53;100464.97;5002601;28;20401;-74
2022/10/16 08:57:24;;;;;;;4.32;1.38;;;;;;;18.88;83.21;100452.28;5008619;28;20734;-73
2022/10/16 08:59:50;;;;;;;7.05;1.10;;;;;;;18.99;82.80;100450.19;5006024;28;20399;-74
2022/10/16 09:02:55;;;;;;;4.13;1.10;;;;;;;19.16;82.27;100453.19;5008472;28;20412;-74
2022/10/16 09:05:48;;;;;;;2.67;0.95;;;;;;;19.30;81.73;100464.22;4995244;28;20420;-73
2022/10/16 09:08:28;;;;;;;3.30;0.93;;;;;;;19.43;81.36;100469.75;5012163;28;20421;-73
2022/10/16 09:11:05;;;;;;;6.53;1.83;;;;;;;19.41;81.25;100479.41;5001546;28;20421;-73
2022/10/16 09:14:06;;;;;;;9.50;4.88;;;;;;;19.39;81.20;100484.38;5013158;28;20952;-73
2022/10/16 09:16:39;;;;;;;5.03;2.40;;;;;;;19.29;80.97;100481.81;5010648;28;20409;-73
2022/10/16 09:19:35;;;;;;;2.55;2.22;;;;;;;19.17;80.93;100485.84;5013971;28;20466;-73
2022/10/16 09:22:12;;;;;;;2.08;1.98;;;;;;;19.10;81.27;100490.91;5012859;28;20512;-73
2022/10/16 09:24:37;;;;;;;2.50;1.80;;;;;;;19.11;81.11;100492.56;5010455;28;20397;-73
2022/10/16 09:27:03;;;;;;;3.63;2.17;;;;;;;19.14;81.15;100491.94;5010435;28;20415;-73
2022/10/16 09:29:28;;;;;;;3.43;1.60;;;;;;;19.20;81.03;100489.13;5010583;28;20515;-73
2022/10/16 09:31:57;;;;;;;3.43;1.90;;;;;;;19.36;80.60;100495.97;5010547;28;20412;-73
2022/10/16 09:34:32;;;;;;;4.18;1.70;;;;;;;19.46;80.23;100502.13;5010553;28;20408;-73
2022/10/16 09:36:59;;;;;;;2.03;1.25;;;;;;;19.57;79.57;100516.50;5004081;28;20912;-73
2022/10/16 09:39:24;;;;;;;4.75;3.10;;;;;;;19.63;79.41;100507.03;5010616;28;20412;-73
2022/10/16 09:41:50;;;;;;;7.77;2.73;;;;;;;20.06;78.61;100510.31;5011386;28;20417;-73
2022/10/16 09:44:29;;;;;;;1.47;1.30;;;;;;;20.68;76.71;100511.50;5010204;28;20926;-73
2022/10/16 09:47:23;;;;;;;5.17;2.20;;;;;;;21.06;74.63;100507.25;5002437;28;20414;-73
2022/10/16 09:50:01;;;;;;;1.17;0.95;;;;;;;21.62;73.84;100512.16;5012303;28;20732;-73
2022/10/16 09:52:26;;;;;;;1.57;0.87;;;;;;;22.79;70.00;100512.34;5007563;28;20758;-73
2022/10/16 09:54:53;;;;;;;7.20;1.00;;;;;;;22.71;68.61;100514.00;5013196;28;20405;-73
2022/10/16 09:57:20;;;;;;;3.83;1.25;;;;;;;22.24;69.86;100520.38;5013476;28;20411;-73
2022/10/16 09:59:56;;;;;;;1.27;0.73;;;;;;;22.74;68.58;100521.63;5012055;28;20406;-73
2022/10/16 10:02:37;;;;;;;2.50;1.05;;;;;;;23.55;65.71;100531.97;5012276;28;20420;-73
2022/10/16 10:05:06;;;;;;;1.00;1.00;;;;;;;24.13;64.14;100529.38;5009429;28;20493;-72
2022/10/16 10:07:37;;;;;;;2.42;1.40;;;;;;;25.27;61.29;100527.06;5012151;28;20494;-73
2022/10/16 10:10:05;;;;;;;3.75;0.98;;;;;;;26.46;58.09;100533.50;5010046;28;20428;-72
2022/10/16 10:12:33;;;;;;;1.40;0.90;;;;;;;27.39;55.11;100522.00;5010443;28;20428;-73
2022/10/16 10:15:05;;;;;;;3.90;1.40;;;;;;;27.32;55.42;100528.19;5001759;28;20441;-73
2022/10/16 10:17:31;;;;;;;2.42;0.90;;;;;;;27.76;54.44;100537.34;4996440;28;20446;-73
2022/10/16 10:20:00;;;;;;;2.57;1.03;;;;;;;27.91;52.84;100546.06;5003388;28;20433;-75
2022/10/16 10:22:45;;;;;;;3.90;1.20;;;;;;;28.09;51.01;100539.81;5010793;28;20499;-75
2022/10/16 10:25:22;;;;;;;2.72;1.10;;;;;;;27.44;51.31;100537.66;5013948;28;20403;-75
2022/10/16 10:28:02;;;;;;;3.60;1.30;;;;;;;25.26;56.66;100541.25;5007225;28;20580;-74
2022/10/16 10:30:41;;;;;;;1.30;0.90;;;;;;;23.90;60.96;100529.94;5003810;28;20543;-74
2022/10/16 10:33:27;;;;;;;3.30;1.10;;;;;;;23.24;63.76;100535.78;4999931;28;20410;-74
2022/10/16 10:36:05;;;;;;;2.75;0.95;;;;;;;23.13;64.38;100531.72;5008164;28;21697;-74
2022/10/16 10:38:57;;;;;;;3.70;0.90;;;;;;;23.12;64.70;100530.06;5007961;28;20400;-74
2022/10/16 10:41:38;;;;;;;1.20;0.63;;;;;;;23.12;64.75;100526.50;5009142;28;20417;-74
2022/10/16 10:44:27;;;;;;;3.28;1.50;;;;;;;23.00;65.36;100529.94;5028972;28;20393;-74
2022/10/16 10:47:01;;;;;;;1.02;0.70;;;;;;;22.93;65.43;100531.53;5009513;28;20445;-73
2022/10/16 10:50:03;;;;;;;4.10;0.70;;;;;;;22.92;65.04;100530.72;5012041;28;20985;-74
2022/10/16 10:52:53;;;;;;;1.33;0.70;;;;;;;22.78;65.63;100543.91;5008912;28;20401;-75
2022/10/16 10:55:44;;;;;;;4.90;0.80;;;;;;;22.66;65.92;100540.94;5006202;28;20830;-74
2022/10/16 10:58:37;;;;;;;4.10;0.80;;;;;;;22.45;65.77;100539.94;5007369;28;20405;-74
2022/10/16 11:01:13;;;;;;;3.40;0.80;;;;;;;22.29;66.65;100544.28;5024926;28;20420;-74
2022/10/16 11:04:00;;;;;;;1.60;0.70;;;;;;;22.33;66.80;100537.00;5013198;28;20396;-72
2022/10/16 11:06:34;;;;;;;0.82;0.80;;;;;;;22.39;66.88;100536.50;5020604;28;20402;-74
2022/10/16 11:09:09;;;;;;;3.08;0.70;;;;;;;22.38;66.48;100531.31;5019131;28;20483;-74
2022/10/16 11:11:40;;;;;;;1.08;0.85;;;;;;;22.53;65.78;100537.16;5020996;28;20466;-74
2022/10/16 11:14:29;;;;;;;1.88;0.68;;;;;;;22.73;65.94;100538.53;5013269;28;20405;-73
2022/10/16 11:17:01;;;;;;;1.60;1.10;;;;;;;22.78;65.20;100534.81;5011484;28;21107;-73
2022/10/16 11:19:38;;;;;;;3.10;0.80;;;;;;;22.75;64.92;100531.53;5011065;28;20411;-73
2022/10/16 11:22:42;;;;;;;1.17;1.10;;;;;;;22.68;65.59;100533.19;5014644;28;20980;-73
2022/10/16 11:25:13;;;;;;;1.10;0.90;;;;;;;22.80;65.21;100524.22;5013133;28;20788;-73
2022/10/16 11:27:44;;;;;;;2.88;0.75;;;;;;;22.85;64.00;100518.56;5013290;28;20761;-73
2022/10/16 11:30:21;;;;;;;2.90;0.90;;;;;;;22.87;64.25;100516.28;5008013;28;20487;-73
2022/10/16 11:33:05;;;;;;;0.80;0.80;;;;;;;22.83;64.80;100510.56;5029307;28;20970;-73
2022/10/16 11:35:37;;;;;;;1.83;0.90;;;;;;;22.69;65.42;100512.69;5028035;28;20413;-73